createdAt,value
2023-05-05T00:00:15.982Z,12.439007
2023-05-05T00:05:16.323Z,12.405000
2023-05-05T00:10:15.892Z,12.335000
2023-05-05T00:15:15.758Z,12.292908
2023-05-05T00:20:16.294Z,12.267376
2023-05-05T00:25:16.884Z,12.265248
2023-05-05T00:30:15.892Z,12.221986
2023-05-05T00:35:16.442Z,11.900709
2023-05-05T00:40:16.289Z,11.653901
2023-05-05T00:45:16.010Z,11.536879
2023-05-05T00:50:16.061Z,11.521277
2023-05-05T00:55:15.906Z,11.602837
2023-05-05T01:00:15.772Z,11.700000
2023-05-05T01:05:16.182Z,11.819858
2023-05-05T01:10:20.279Z,12.015493
2023-05-05T01:15:15.927Z,12.023944
2023-05-05T01:20:16.034Z,12.200709
2023-05-05T01:25:15.714Z,12.253571
2023-05-05T01:30:15.956Z,12.200000
2023-05-05T01:35:16.863Z,12.128571
2023-05-05T01:40:16.918Z,12.075352
2023-05-05T01:45:16.169Z,11.992908
2023-05-05T01:50:16.120Z,11.961972
2023-05-05T01:55:15.935Z,11.887943
2023-05-05T02:00:16.222Z,11.869504
2023-05-05T02:05:15.952Z,11.907092
2023-05-05T02:10:16.078Z,11.785816
2023-05-05T02:15:15.739Z,11.657447
2023-05-05T02:20:16.240Z,11.634043
2023-05-05T02:25:15.970Z,11.681818
2023-05-05T02:30:16.042Z,11.685315
2023-05-05T02:35:16.499Z,11.667606
2023-05-05T02:40:16.099Z,11.620423
2023-05-05T02:45:15.765Z,11.651408
2023-05-05T02:50:15.711Z,11.662937
2023-05-05T02:55:15.692Z,11.661806
2023-05-05T03:00:15.897Z,11.583217
2023-05-05T03:05:16.183Z,11.546154
2023-05-05T03:10:16.370Z,11.471528
2023-05-05T03:15:15.769Z,11.410345
2023-05-05T03:20:16.242Z,11.365517
2023-05-05T03:25:16.586Z,11.335862
2023-05-05T03:30:15.902Z,11.248966
2023-05-05T03:35:15.931Z,11.224828
2023-05-05T03:40:16.012Z,11.140690
2023-05-05T03:45:15.968Z,11.017483
2023-05-05T03:50:16.047Z,10.923944
2023-05-05T03:55:15.893Z,10.788652
2023-05-05T04:00:15.842Z,10.757042
2023-05-05T04:05:16.246Z,10.832624
2023-05-05T04:10:16.287Z,10.918440
2023-05-05T04:15:15.980Z,11.121678
2023-05-05T04:20:16.934Z,11.135461
2023-05-05T04:25:16.214Z,11.079577
2023-05-05T04:30:16.036Z,11.066901
2023-05-05T04:35:16.201Z,11.062676
2023-05-05T04:40:16.489Z,10.989437
2023-05-05T04:45:16.261Z,10.957746
2023-05-05T04:50:16.768Z,11.044681
2023-05-05T04:55:15.829Z,10.934507
2023-05-05T05:00:16.414Z,10.873050
2023-05-05T05:05:16.281Z,10.880986
2023-05-05T05:10:16.470Z,10.825352
2023-05-05T05:15:15.979Z,10.797203
2023-05-05T05:20:16.036Z,10.774825
2023-05-05T05:25:15.806Z,10.927465
2023-05-05T05:30:17.252Z,11.011348
2023-05-05T05:35:15.874Z,11.032867
2023-05-05T05:40:15.727Z,10.963448
2023-05-05T05:45:16.247Z,10.802778
2023-05-05T05:50:16.114Z,10.620833
2023-05-05T05:55:16.222Z,10.641958
2023-05-05T06:00:16.053Z,10.600704
2023-05-05T06:05:16.073Z,10.708511
2023-05-05T06:10:27.195Z,10.780986
2023-05-05T06:15:15.998Z,10.729787
2023-05-05T06:20:17.270Z,10.768085
2023-05-05T06:25:16.191Z,10.804225
2023-05-05T06:30:16.407Z,10.657857
2023-05-05T06:35:16.528Z,10.548921
2023-05-05T06:40:15.751Z,10.500704
2023-05-05T06:45:16.782Z,10.496454
2023-05-05T06:50:15.930Z,10.394366
2023-05-05T06:55:15.785Z,10.261702
2023-05-05T07:00:16.690Z,10.167606
2023-05-05T07:05:16.291Z,10.076087
2023-05-05T07:10:17.040Z,10.066906
2023-05-05T07:15:26.572Z,10.070290
2023-05-05T07:20:16.582Z,10.014074
2023-05-05T07:25:16.024Z,10.080851
2023-05-05T07:30:18.321Z,10.127465
2023-05-05T07:35:16.672Z,10.068116
2023-05-05T07:40:16.340Z,10.082979
2023-05-05T07:45:15.883Z,10.085714
2023-05-05T07:50:16.735Z,10.056522
2023-05-05T07:55:16.200Z,10.060870
2023-05-05T08:00:15.958Z,10.087143
2023-05-05T08:05:16.241Z,10.097183
2023-05-05T08:10:15.787Z,10.109155
2023-05-05T08:15:16.061Z,10.095070
2023-05-05T08:20:16.333Z,10.055714
2023-05-05T08:25:16.047Z,10.035000
2023-05-05T08:30:16.243Z,10.002174
2023-05-05T08:35:15.754Z,9.972794
2023-05-05T08:40:16.101Z,9.998551
2023-05-05T08:45:16.643Z,9.954412
2023-05-05T08:50:15.846Z,9.888148
2023-05-05T08:55:17.089Z,9.858394
2023-05-05T09:00:15.931Z,9.867153
2023-05-05T09:05:16.443Z,9.841912
2023-05-05T09:10:16.033Z,9.862222
2023-05-05T09:15:16.088Z,9.817647
2023-05-05T09:20:15.990Z,9.820588
2023-05-05T09:25:17.436Z,9.788148
2023-05-05T09:30:15.755Z,9.751471
2023-05-05T09:35:16.036Z,9.719853
2023-05-05T09:40:16.815Z,9.711029
2023-05-05T09:45:16.057Z,9.731159
2023-05-05T09:50:16.262Z,9.734307
2023-05-05T09:55:15.838Z,9.725000
2023-05-05T10:00:16.307Z,9.737037
2023-05-05T10:05:15.901Z,9.727941
2023-05-05T10:10:16.306Z,9.722059
2023-05-05T10:15:17.197Z,9.711940
2023-05-05T10:20:16.186Z,9.714179
2023-05-05T10:25:16.620Z,9.750376
2023-05-05T10:30:15.892Z,9.784211
2023-05-05T10:35:16.309Z,9.786466
2023-05-05T10:40:16.013Z,9.794776
2023-05-05T10:45:16.297Z,9.813534
2023-05-05T10:50:16.205Z,9.834815
2023-05-05T10:55:16.114Z,9.821642
2023-05-05T11:00:15.862Z,9.802941
2023-05-05T11:05:16.310Z,9.737500
2023-05-05T11:10:16.288Z,9.755882
2023-05-05T11:15:16.302Z,9.757857
2023-05-05T11:20:16.552Z,9.755474
2023-05-05T11:25:15.704Z,9.780147
2023-05-05T11:30:16.481Z,9.731852
2023-05-05T11:35:16.788Z,9.743704
2023-05-05T11:40:16.637Z,9.700752
2023-05-05T11:45:16.034Z,9.686667
2023-05-05T11:50:15.952Z,9.700746
2023-05-05T11:55:16.286Z,9.724265
2023-05-05T12:00:16.524Z,9.764706
2023-05-05T12:05:15.717Z,9.726667
2023-05-05T12:10:16.161Z,9.743382
2023-05-05T12:15:15.812Z,9.763504
2023-05-05T12:20:21.256Z,9.803676
2023-05-05T12:25:15.742Z,9.808889
2023-05-05T12:30:16.767Z,9.855224
2023-05-05T12:35:15.860Z,9.817778
2023-05-05T12:40:15.998Z,9.922222
2023-05-05T12:45:15.950Z,9.905185
2023-05-05T12:50:16.697Z,9.955224
2023-05-05T12:55:16.344Z,9.929851
2023-05-05T13:00:15.855Z,9.976642
2023-05-05T13:05:15.982Z,9.905882
2023-05-05T13:10:16.154Z,9.904412
2023-05-05T13:15:15.784Z,9.898529
2023-05-05T13:20:16.141Z,9.916176
2023-05-05T13:25:15.973Z,9.935036
2023-05-05T13:30:16.377Z,9.912593
2023-05-05T13:35:16.884Z,9.886567
2023-05-05T13:40:16.479Z,9.899242
2023-05-05T13:45:15.867Z,9.877612
2023-05-05T13:50:16.039Z,9.838235
2023-05-05T13:55:16.512Z,9.854412
2023-05-05T14:00:15.990Z,9.884444
2023-05-05T14:05:16.103Z,9.889855
2023-05-05T14:10:16.738Z,9.928986
2023-05-05T14:15:16.825Z,9.908889
2023-05-05T14:20:16.061Z,9.858209
2023-05-05T14:25:16.191Z,9.834328
2023-05-05T14:30:16.353Z,9.825185
2023-05-05T14:35:16.541Z,9.859259
2023-05-05T14:40:16.179Z,9.869630
2023-05-05T14:45:16.560Z,9.843382
2023-05-05T14:50:16.220Z,9.909420
2023-05-05T14:55:16.436Z,9.921898
2023-05-05T15:00:16.932Z,9.881884
2023-05-05T15:05:16.366Z,9.891241
2023-05-05T15:10:16.569Z,9.913869
2023-05-05T15:15:16.072Z,9.915441
2023-05-05T15:20:17.200Z,9.910370
2023-05-05T15:25:16.252Z,9.922059
2023-05-05T15:30:17.471Z,9.904444
2023-05-05T15:35:15.751Z,9.946324
2023-05-05T15:40:15.750Z,9.935766
2023-05-05T15:45:15.662Z,9.908759
2023-05-05T15:50:15.758Z,9.843382
2023-05-05T15:55:17.062Z,9.921014
2023-05-05T16:00:16.282Z,9.961314
2023-05-05T16:05:16.905Z,9.915556
2023-05-05T16:10:16.491Z,9.994161
2023-05-05T16:15:15.880Z,10.004444
2023-05-05T16:20:16.626Z,10.000746
2023-05-05T16:25:15.684Z,9.930597
2023-05-05T16:30:16.002Z,9.975735
2023-05-05T16:35:15.899Z,9.957778
2023-05-05T16:40:15.760Z,9.940741
2023-05-05T16:45:16.372Z,9.967910
2023-05-05T16:50:15.757Z,9.982353
2023-05-05T16:55:16.667Z,9.991111
2023-05-05T17:00:15.872Z,9.940876
2023-05-05T17:05:15.969Z,10.014493
2023-05-05T17:10:15.797Z,10.038849
2023-05-05T17:15:16.516Z,9.982963
2023-05-05T17:20:16.660Z,9.994074
2023-05-05T17:25:15.831Z,9.994853
2023-05-05T17:30:15.913Z,9.971111
2023-05-05T17:35:17.085Z,9.937956
2023-05-05T17:40:16.266Z,9.927536
2023-05-05T17:45:16.022Z,10.059441
2023-05-05T17:50:16.027Z,9.963235
2023-05-05T17:55:16.760Z,10.094326
2023-05-05T18:00:17.300Z,10.123944
2023-05-05T18:05:16.206Z,10.161268
2023-05-05T18:10:15.802Z,10.248592
2023-05-05T18:15:16.493Z,10.221831
2023-05-05T18:20:16.811Z,10.275694
2023-05-05T18:25:15.740Z,10.400690
2023-05-05T18:30:17.876Z,10.222917
2023-05-05T18:35:16.203Z,10.278621
2023-05-05T18:40:16.590Z,10.302055
2023-05-05T18:45:16.005Z,10.430137
2023-05-05T18:50:16.707Z,10.389583
2023-05-05T18:55:16.676Z,10.317241
2023-05-05T19:00:16.160Z,10.290909
2023-05-05T19:05:15.790Z,10.336620
2023-05-05T19:10:16.316Z,10.361111
2023-05-05T19:15:15.849Z,10.423077
2023-05-05T19:20:16.174Z,10.379433
2023-05-05T19:25:16.156Z,10.445070
2023-05-05T19:30:16.064Z,10.400000
2023-05-05T19:35:16.236Z,10.340278
2023-05-05T19:40:16.039Z,10.350350
2023-05-05T19:45:15.916Z,10.432867
2023-05-05T19:50:15.851Z,10.442254
2023-05-05T19:55:15.890Z,10.478873
2023-05-05T20:00:17.056Z,10.467376
2023-05-05T20:05:17.258Z,10.393056
2023-05-05T20:10:15.812Z,10.438194
2023-05-05T20:15:15.778Z,10.367832
2023-05-05T20:20:16.461Z,10.390210
2023-05-05T20:25:15.806Z,10.353571
2023-05-05T20:30:15.929Z,10.444755
2023-05-05T20:35:17.111Z,10.499296
2023-05-05T20:40:15.998Z,10.573427
2023-05-05T20:45:16.224Z,10.577622
2023-05-05T20:50:16.901Z,10.589510
2023-05-05T20:55:15.796Z,10.572028
2023-05-05T21:00:15.911Z,10.526573
2023-05-05T21:05:16.240Z,10.492308
2023-05-05T21:10:16.036Z,10.539437
2023-05-05T21:15:16.148Z,10.643662
2023-05-05T21:20:15.906Z,10.737589
2023-05-05T21:25:16.101Z,10.684615
2023-05-05T21:30:16.493Z,10.634507
2023-05-05T21:35:15.996Z,10.858156
2023-05-05T21:40:16.248Z,10.843662
2023-05-05T21:45:16.428Z,10.800709
2023-05-05T21:50:16.182Z,10.781690
2023-05-05T21:55:16.199Z,10.728671
2023-05-05T22:00:16.234Z,10.869718
2023-05-05T22:05:15.950Z,10.888732
2023-05-05T22:10:17.147Z,10.990141
2023-05-05T22:15:15.888Z,10.881690
2023-05-05T22:20:16.137Z,10.942361
2023-05-05T22:25:15.863Z,10.875524
2023-05-05T22:30:17.070Z,10.940559
2023-05-05T22:35:16.257Z,10.967606
2023-05-05T22:40:16.316Z,10.900709
2023-05-05T22:45:16.215Z,10.985211
2023-05-05T22:50:15.802Z,10.967857
2023-05-05T22:55:17.444Z,10.884397
2023-05-05T23:00:16.259Z,10.907746
2023-05-05T23:05:16.171Z,11.171223
2023-05-05T23:10:16.034Z,11.107092
2023-05-05T23:15:15.927Z,11.163121
2023-05-05T23:20:16.123Z,11.139716
2023-05-05T23:25:15.949Z,11.070922
2023-05-05T23:30:16.452Z,11.090210
2023-05-05T23:35:16.407Z,11.119149
2023-05-05T23:40:16.237Z,11.167606
2023-05-05T23:45:18.080Z,11.107692
2023-05-05T23:50:15.816Z,11.055319
2023-05-05T23:55:15.787Z,11.086525
